createdAt,value
2018-11-10T00:02:04.347Z,48.34
2018-11-10T00:04:30.336Z,48.26
2018-11-10T00:06:56.345Z,48.29
2018-11-10T00:09:22.357Z,48.23
2018-11-10T00:11:48.361Z,48.17
2018-11-10T00:14:14.347Z,48.15
2018-11-10T00:16:40.402Z,48.11
2018-11-10T00:19:06.374Z,48.07
2018-11-10T00:21:32.353Z,48.07
2018-11-10T00:23:58.406Z,48.04
2018-11-10T00:26:24.392Z,48.15
2018-11-10T00:28:50.400Z,48.15
2018-11-10T00:31:16.417Z,47.99
2018-11-10T00:33:42.422Z,47.98
2018-11-10T00:36:08.422Z,48.00
2018-11-10T00:38:34.429Z,48.02
2018-11-10T00:41:00.445Z,48.05
2018-11-10T00:43:26.429Z,47.96
2018-11-10T00:45:52.411Z,47.98
2018-11-10T00:48:18.422Z,47.95
2018-11-10T00:50:44.434Z,47.76
2018-11-10T00:53:10.422Z,47.87
2018-11-10T00:55:36.436Z,47.80
2018-11-10T00:58:02.416Z,47.68
2018-11-10T01:00:28.416Z,47.65
2018-11-10T01:02:54.412Z,47.79
2018-11-10T01:05:20.417Z,47.66
2018-11-10T01:07:46.425Z,47.71
2018-11-10T01:10:12.440Z,47.63
2018-11-10T01:12:38.454Z,47.46
2018-11-10T01:15:04.435Z,47.56
2018-11-10T01:17:30.485Z,47.45
2018-11-10T01:19:56.472Z,47.48
2018-11-10T01:22:22.486Z,47.45
2018-11-10T01:24:48.469Z,47.42
2018-11-10T01:27:14.478Z,47.35
2018-11-10T01:29:40.473Z,47.48
2018-11-10T01:32:06.541Z,47.40
2018-11-10T01:34:32.519Z,47.33
2018-11-10T01:36:58.533Z,47.43
2018-11-10T01:39:24.539Z,47.37
2018-11-10T01:41:50.525Z,47.33
2018-11-10T01:44:16.510Z,47.18
2018-11-10T01:46:42.523Z,47.23
2018-11-10T01:49:08.520Z,47.19
2018-11-10T01:51:34.529Z,47.22
2018-11-10T01:54:00.539Z,47.22
2018-11-10T01:56:26.524Z,47.17
2018-11-10T01:58:52.502Z,47.31
2018-11-10T02:01:18.491Z,47.43
2018-11-10T02:03:44.475Z,47.20
2018-11-10T02:06:10.456Z,47.32
2018-11-10T02:08:36.468Z,47.39
2018-11-10T02:11:02.483Z,47.19
2018-11-10T02:13:28.492Z,47.15
2018-11-10T02:15:54.480Z,47.21
2018-11-10T02:18:20.461Z,47.20
2018-11-10T02:20:46.506Z,47.10
2018-11-10T02:23:12.630Z,47.35
2018-11-10T02:25:38.618Z,47.08
2018-11-10T02:28:04.610Z,47.13
2018-11-10T02:30:30.620Z,47.06
2018-11-10T02:32:56.609Z,47.16
2018-11-10T02:35:22.594Z,47.07
2018-11-10T02:37:48.606Z,47.01
2018-11-10T02:40:14.591Z,47.19
2018-11-10T02:42:40.602Z,47.04
2018-11-10T02:45:06.588Z,46.90
2018-11-10T02:47:32.582Z,46.89
2018-11-10T02:49:58.586Z,46.75
2018-11-10T02:52:24.610Z,46.76
2018-11-10T02:54:50.590Z,46.86
2018-11-10T02:57:16.767Z,46.78
2018-11-10T02:59:42.781Z,46.63
2018-11-10T03:02:08.792Z,46.68
2018-11-10T03:04:34.797Z,46.77
2018-11-10T03:07:00.786Z,46.54
2018-11-10T03:09:26.797Z,46.88
2018-11-10T03:11:52.804Z,46.83
2018-11-10T03:14:18.813Z,46.74
2018-11-10T03:16:44.797Z,46.68
2018-11-10T03:19:10.810Z,46.59
2018-11-10T03:21:36.789Z,46.73
2018-11-10T03:24:02.780Z,46.49
2018-11-10T03:26:28.762Z,46.48
2018-11-10T03:28:54.778Z,46.83
2018-11-10T03:31:20.758Z,46.50
2018-11-10T03:33:46.741Z,46.75
2018-11-10T03:36:12.782Z,46.31
2018-11-10T03:38:38.791Z,46.20
2018-11-10T03:41:04.777Z,46.66
2018-11-10T03:43:30.790Z,46.22
2018-11-10T03:45:56.792Z,46.44
2018-11-10T03:48:22.804Z,46.25
2018-11-10T03:50:48.805Z,46.31
2018-11-10T03:53:14.788Z,46.49
2018-11-10T03:55:40.805Z,46.16
2018-11-10T03:58:06.786Z,46.25
2018-11-10T04:00:32.772Z,46.20
2018-11-10T04:02:58.758Z,46.21
2018-11-10T04:05:24.739Z,46.16
2018-11-10T04:07:50.722Z,46.35
2018-11-10T04:10:16.703Z,46.21
2018-11-10T04:12:42.720Z,46.17
2018-11-10T04:15:08.724Z,46.13
2018-11-10T04:17:34.708Z,46.33
2018-11-10T04:20:00.696Z,46.25
2018-11-10T04:22:26.679Z,46.17
2018-11-10T04:24:52.725Z,46.17
2018-11-10T04:27:18.712Z,46.03
2018-11-10T04:29:44.726Z,46.13
2018-11-10T04:32:10.716Z,46.15
2018-11-10T04:34:36.729Z,46.02
2018-11-10T04:37:02.712Z,46.05
2018-11-10T04:39:28.717Z,46.32
2018-11-10T04:41:54.722Z,46.28
2018-11-10T04:44:20.755Z,45.93
2018-11-10T04:46:46.742Z,46.01
2018-11-10T04:49:12.754Z,45.82
2018-11-10T04:51:38.766Z,46.05
2018-11-10T04:54:04.743Z,46.13
2018-11-10T04:56:30.759Z,46.23
2018-11-10T04:58:56.764Z,46.31
2018-11-10T05:01:22.850Z,46.34
2018-11-10T05:03:48.809Z,46.20
2018-11-10T05:06:14.816Z,46.20
2018-11-10T05:08:40.805Z,46.18
2018-11-10T05:11:06.793Z,46.29
2018-11-10T05:13:32.773Z,46.23
2018-11-10T05:15:58.755Z,46.25
2018-11-10T05:18:24.736Z,46.38
2018-11-10T05:20:50.746Z,46.41
2018-11-10T05:23:16.754Z,46.45
2018-11-10T05:25:42.784Z,46.54
2018-11-10T05:28:08.800Z,46.53
2018-11-10T05:30:34.804Z,46.50
2018-11-10T05:33:00.791Z,46.64
2018-11-10T05:35:26.779Z,46.72
2018-11-10T05:37:52.761Z,46.74
2018-11-10T05:40:18.769Z,46.65
2018-11-10T05:42:44.785Z,46.91
2018-11-10T05:45:10.812Z,46.79
2018-11-10T05:47:36.801Z,46.79
2018-11-10T05:50:02.783Z,46.83
2018-11-10T05:52:28.769Z,46.85
2018-11-10T05:54:54.959Z,46.79
2018-11-10T05:57:21.026Z,46.81
2018-11-10T05:59:46.930Z,46.88
2018-11-10T06:02:12.959Z,46.94
2018-11-10T06:04:38.964Z,46.96
2018-11-10T06:07:04.940Z,47.07
2018-11-10T06:09:31.012Z,47.07
2018-11-10T06:11:56.984Z,47.14
2018-11-10T06:14:22.994Z,47.19
2018-11-10T06:16:49.003Z,47.24
2018-11-10T06:19:15.012Z,47.38
2018-11-10T06:21:41.022Z,47.45
2018-11-10T06:24:07.029Z,47.32
2018-11-10T06:26:33.016Z,47.43
2018-11-10T06:28:59.002Z,47.51
2018-11-10T06:31:24.984Z,47.48
2018-11-10T06:33:51.034Z,47.45
2018-11-10T06:36:17.016Z,47.37
2018-11-10T06:38:43.021Z,47.54
2018-11-10T06:41:09.095Z,47.46
2018-11-10T06:43:35.064Z,47.57
2018-11-10T06:46:01.074Z,47.59
2018-11-10T06:48:27.095Z,47.61
2018-11-10T06:50:53.102Z,47.64
2018-11-10T06:53:19.106Z,47.61
2018-11-10T06:55:45.095Z,47.59
2018-11-10T06:58:11.098Z,47.61
2018-11-10T07:00:37.088Z,47.64
2018-11-10T07:03:03.098Z,47.63
2018-11-10T07:05:29.130Z,47.59
2018-11-10T07:07:55.178Z,47.71
2018-11-10T07:10:21.181Z,47.61
2018-11-10T07:12:47.173Z,47.64
2018-11-10T07:15:13.157Z,47.59
2018-11-10T07:17:39.273Z,47.86
2018-11-10T07:20:05.215Z,47.77
2018-11-10T07:22:31.208Z,47.88
2018-11-10T07:24:57.256Z,47.91
2018-11-10T07:27:23.204Z,47.92
2018-11-10T07:29:49.191Z,48.03
2018-11-10T07:32:15.215Z,48.13
2018-11-10T07:34:41.268Z,48.41
2018-11-10T07:37:07.478Z,48.72
2018-11-10T07:39:33.458Z,48.99
2018-11-10T07:41:59.466Z,49.15
2018-11-10T07:44:25.483Z,49.09
2018-11-10T07:46:51.490Z,49.16
2018-11-10T07:49:17.551Z,48.98
2018-11-10T07:51:43.691Z,48.93
2018-11-10T07:54:10.961Z,48.90
2018-11-10T07:56:36.931Z,48.94
2018-11-10T07:59:02.965Z,48.90
2018-11-10T08:01:28.948Z,48.90
2018-11-10T08:03:54.958Z,49.09
2018-11-10T08:06:20.946Z,49.14
2018-11-10T08:08:46.955Z,49.41
2018-11-10T08:11:12.937Z,49.25
2018-11-10T08:13:38.947Z,49.21
2018-11-10T08:16:04.950Z,49.19
2018-11-10T08:18:31.026Z,49.46
2018-11-10T08:20:56.952Z,49.41
2018-11-10T08:23:22.946Z,49.37
2018-11-10T08:25:48.935Z,49.21
2018-11-10T08:28:15.819Z,49.18
2018-11-10T08:30:41.789Z,49.29
2018-11-10T08:33:07.783Z,50.00
2018-11-10T08:35:35.004Z,50.07
2018-11-10T08:38:01.001Z,50.48
2018-11-10T08:40:27.013Z,50.67
2018-11-10T08:42:53.033Z,50.64
2018-11-10T08:45:19.005Z,50.76
2018-11-10T08:47:44.986Z,50.62
2018-11-10T08:50:10.971Z,50.84
2018-11-10T08:52:36.951Z,50.83
2018-11-10T08:55:02.972Z,50.67
2018-11-10T08:57:29.184Z,50.62
2018-11-10T08:59:55.142Z,50.55
2018-11-10T09:02:21.159Z,50.35
2018-11-10T09:04:47.176Z,50.53
2018-11-10T09:07:13.196Z,50.59
2018-11-10T09:09:39.219Z,50.52
2018-11-10T09:12:07.432Z,50.47
2018-11-10T09:14:33.407Z,50.44
2018-11-10T09:16:59.401Z,50.28
2018-11-10T09:19:25.383Z,50.09
2018-11-10T09:21:51.465Z,50.12
2018-11-10T09:24:17.391Z,50.08
2018-11-10T09:26:43.396Z,50.00
2018-11-10T09:29:09.443Z,49.98
2018-11-10T09:31:35.430Z,49.90
2018-11-10T09:34:01.553Z,49.89
2018-11-10T09:36:27.651Z,49.47
2018-11-10T09:38:53.872Z,49.32
2018-11-10T09:41:19.869Z,49.46
2018-11-10T09:43:45.883Z,49.80
2018-11-10T09:46:11.894Z,49.96
2018-11-10T09:48:37.902Z,50.35
2018-11-10T09:51:03.942Z,49.91
2018-11-10T09:53:29.939Z,49.95
2018-11-10T09:55:55.939Z,49.70
2018-11-10T09:58:21.943Z,49.64
2018-11-10T10:00:47.960Z,49.50
2018-11-10T10:03:14.071Z,49.52
2018-11-10T10:05:40.057Z,49.43
2018-11-10T10:08:06.074Z,49.43
2018-11-10T10:10:32.076Z,49.36
2018-11-10T10:12:58.063Z,49.31
2018-11-10T10:15:24.052Z,49.23
2018-11-10T10:17:50.064Z,48.76
2018-11-10T10:20:16.064Z,48.36
2018-11-10T10:22:42.057Z,47.98
2018-11-10T10:25:08.344Z,48.07
2018-11-10T10:27:34.339Z,47.86
2018-11-10T10:30:00.329Z,47.82
2018-11-10T10:32:26.334Z,47.43
2018-11-10T10:34:52.407Z,47.59
2018-11-10T10:37:18.393Z,47.34
2018-11-10T10:39:44.410Z,47.51
2018-11-10T10:42:10.366Z,47.39
2018-11-10T10:44:36.355Z,47.82
2018-11-10T10:47:02.344Z,48.19
2018-11-10T10:49:28.328Z,47.64
2018-11-10T10:51:54.311Z,47.81
2018-11-10T10:54:20.330Z,47.83
2018-11-10T10:56:46.325Z,48.08
2018-11-10T10:59:12.322Z,48.05
2018-11-10T11:01:38.341Z,47.92
2018-11-10T11:04:04.466Z,48.01
2018-11-10T11:06:30.448Z,48.03
2018-11-10T11:08:56.481Z,48.81
2018-11-10T11:11:22.473Z,48.89
2018-11-10T11:13:48.496Z,48.63
2018-11-10T11:16:14.507Z,48.40
2018-11-10T11:18:40.876Z,48.25
2018-11-10T11:21:06.838Z,48.08
2018-11-10T11:23:32.908Z,47.91
2018-11-10T11:25:58.916Z,48.13
2018-11-10T11:28:24.933Z,48.21
2018-11-10T11:30:50.911Z,48.34
2018-11-10T11:33:16.895Z,48.44
2018-11-10T11:35:42.875Z,48.42
2018-11-10T11:38:08.889Z,48.46
2018-11-10T11:40:34.875Z,48.46
2018-11-10T11:43:00.881Z,48.47
2018-11-10T11:45:26.866Z,48.48
2018-11-10T11:47:52.894Z,48.46
2018-11-10T11:50:18.864Z,48.47
2018-11-10T11:52:44.878Z,48.63
2018-11-10T11:55:10.862Z,48.63
2018-11-10T11:57:36.871Z,48.51
2018-11-10T12:00:02.866Z,48.63
2018-11-10T12:02:28.901Z,48.63
2018-11-10T12:04:54.893Z,48.71
2018-11-10T12:07:20.876Z,48.63
2018-11-10T12:09:46.885Z,48.60
2018-11-10T12:12:12.890Z,48.57
2018-11-10T12:14:38.871Z,48.61
2018-11-10T12:17:04.876Z,48.56
2018-11-10T12:19:30.840Z,48.66
2018-11-10T12:21:56.832Z,48.59
2018-11-10T12:24:22.829Z,48.60
2018-11-10T12:26:48.896Z,48.63
2018-11-10T12:29:14.800Z,48.59
2018-11-10T12:31:40.786Z,48.67
2018-11-10T12:34:06.798Z,48.68
2018-11-10T12:36:32.828Z,48.67
2018-11-10T12:38:58.957Z,48.59
2018-11-10T12:41:24.867Z,48.57
2018-11-10T12:43:50.869Z,48.51
2018-11-10T12:46:16.896Z,48.52
2018-11-10T12:48:42.904Z,48.53
2018-11-10T12:51:08.876Z,48.59
2018-11-10T12:53:34.885Z,48.53
2018-11-10T12:56:00.901Z,48.59
2018-11-10T12:58:26.888Z,48.65
2018-11-10T13:00:52.938Z,48.58
2018-11-10T13:03:18.924Z,48.57
2018-11-10T13:05:44.922Z,48.61
2018-11-10T13:08:10.953Z,48.57
2018-11-10T13:10:36.973Z,48.63
2018-11-10T13:13:02.954Z,48.65
2018-11-10T13:15:28.957Z,48.71
2018-11-10T13:17:54.961Z,48.68
2018-11-10T13:20:21.027Z,48.58
2018-11-10T13:22:46.963Z,48.72
2018-11-10T13:25:12.982Z,48.50
2018-11-10T13:27:38.962Z,48.05
2018-11-10T13:30:04.983Z,47.87
2018-11-10T13:32:30.993Z,47.98
2018-11-10T13:34:56.998Z,48.03
2018-11-10T13:37:22.989Z,48.09
2018-11-10T13:39:49.025Z,48.00
2018-11-10T13:42:15.029Z,48.33
2018-11-10T13:44:40.968Z,48.27
2018-11-10T13:47:06.980Z,48.29
2018-11-10T13:49:32.969Z,48.28
2018-11-10T13:51:59.341Z,48.45
2018-11-10T13:54:24.974Z,48.44
2018-11-10T13:56:50.956Z,48.54
2018-11-10T13:59:16.988Z,48.68
2018-11-10T14:01:43.011Z,48.65
2018-11-10T14:04:08.986Z,48.74
2018-11-10T14:06:34.978Z,48.85
2018-11-10T14:09:00.988Z,48.94
2018-11-10T14:11:26.977Z,49.01
2018-11-10T14:13:52.992Z,49.08
2018-11-10T14:16:18.996Z,49.30
2018-11-10T14:18:45.015Z,49.42
2018-11-10T14:21:22.222Z,49.51
2018-11-10T14:23:48.592Z,49.94
2018-11-10T14:26:24.418Z,49.86
2018-11-10T14:28:51.498Z,49.64
2018-11-10T14:31:19.367Z,49.55
2018-11-10T14:33:45.932Z,49.51
2018-11-10T14:36:12.319Z,49.57
2018-11-10T14:38:39.016Z,49.51
2018-11-10T14:41:05.668Z,49.46
2018-11-10T14:43:32.626Z,49.50
2018-11-10T14:45:59.827Z,49.24
2018-11-10T14:48:26.244Z,49.07
2018-11-10T14:50:52.780Z,48.93
2018-11-10T14:53:19.789Z,48.90
2018-11-10T14:55:46.071Z,49.08
2018-11-10T14:58:12.673Z,49.27
2018-11-10T15:00:39.970Z,49.34
2018-11-10T15:03:07.928Z,49.35
2018-11-10T15:05:34.544Z,49.72
2018-11-10T15:08:00.688Z,49.86
2018-11-10T15:10:29.496Z,50.13
2018-11-10T15:12:57.242Z,50.24
2018-11-10T15:15:29.155Z,50.26
2018-11-10T15:18:05.600Z,50.48
2018-11-10T15:20:33.785Z,50.54
2018-11-10T15:23:01.618Z,50.58
2018-11-10T15:25:27.676Z,50.63
2018-11-10T15:27:53.644Z,50.71
2018-11-10T15:30:19.664Z,50.68
2018-11-10T15:32:45.649Z,50.86
2018-11-10T15:35:11.636Z,50.91
2018-11-10T15:37:37.703Z,50.92
2018-11-10T15:40:04.564Z,50.88
2018-11-10T15:42:33.012Z,50.88
2018-11-10T15:44:59.021Z,50.97
2018-11-10T15:47:25.009Z,51.03
2018-11-10T15:49:51.018Z,50.96
2018-11-10T15:52:23.467Z,50.99
2018-11-10T15:54:46.010Z,51.02
2018-11-10T15:57:12.080Z,51.03
2018-11-10T15:59:38.029Z,50.94
2018-11-10T16:02:04.262Z,51.15
2018-11-10T16:04:30.272Z,51.01
2018-11-10T16:06:56.338Z,51.08
2018-11-10T16:09:22.408Z,51.01
2018-11-10T16:11:48.306Z,51.06
2018-11-10T16:14:14.308Z,51.04
2018-11-10T16:16:40.299Z,50.94
2018-11-10T16:19:06.302Z,51.01
2018-11-10T16:21:32.317Z,51.05
2018-11-10T16:23:58.333Z,51.09
2018-11-10T16:26:24.314Z,51.29
2018-11-10T16:28:50.295Z,51.11
2018-11-10T16:31:16.294Z,51.29
2018-11-10T16:33:42.307Z,51.32
2018-11-10T16:36:08.297Z,51.37
2018-11-10T16:38:36.719Z,51.39
2018-11-10T16:41:02.708Z,51.49
2018-11-10T16:43:28.709Z,51.63
2018-11-10T16:45:54.777Z,51.64
2018-11-10T16:48:20.858Z,51.69
2018-11-10T16:50:48.769Z,51.64
2018-11-10T16:53:14.799Z,51.55
2018-11-10T16:55:40.766Z,51.53
2018-11-10T16:58:13.400Z,51.61
2018-11-10T17:00:39.361Z,51.58
2018-11-10T17:03:05.438Z,51.53
2018-11-10T17:05:31.480Z,51.53
2018-11-10T17:07:57.466Z,51.53
2018-11-10T17:10:23.444Z,51.36
2018-11-10T17:12:49.470Z,51.35
2018-11-10T17:15:15.526Z,51.07
2018-11-10T17:17:41.495Z,51.09
2018-11-10T17:20:07.547Z,51.00
2018-11-10T17:22:33.600Z,50.94
2018-11-10T17:24:59.516Z,50.75
2018-11-10T17:27:25.528Z,50.75
2018-11-10T17:29:51.538Z,50.81
2018-11-10T17:32:17.561Z,50.97
2018-11-10T17:34:43.569Z,50.98
2018-11-10T17:37:09.571Z,51.22
2018-11-10T17:39:35.677Z,51.15
2018-11-10T17:42:01.649Z,51.36
2018-11-10T17:44:27.635Z,51.60
2018-11-10T17:46:53.642Z,51.42
2018-11-10T17:49:19.626Z,51.45
2018-11-10T17:51:45.633Z,51.72
2018-11-10T17:54:11.619Z,51.70
2018-11-10T17:56:37.673Z,51.66
2018-11-10T17:59:03.648Z,51.51
2018-11-10T18:01:29.857Z,51.66
2018-11-10T18:03:55.905Z,51.74
2018-11-10T18:06:21.828Z,51.68
2018-11-10T18:08:47.859Z,51.58
2018-11-10T18:11:13.943Z,51.59
2018-11-10T18:13:39.955Z,51.58
2018-11-10T18:16:06.056Z,51.67
2018-11-10T18:18:32.033Z,51.61
2018-11-10T18:20:58.020Z,51.55
2018-11-10T18:23:24.006Z,51.55
2018-11-10T18:25:50.037Z,51.95
2018-11-10T18:28:16.025Z,51.76
2018-11-10T18:30:42.035Z,51.92
2018-11-10T18:33:08.057Z,52.15
2018-11-10T18:35:34.065Z,51.93
2018-11-10T18:38:00.054Z,51.67
2018-11-10T18:40:26.047Z,51.65
2018-11-10T18:42:52.049Z,51.71
2018-11-10T18:45:18.032Z,51.74
2018-11-10T18:47:44.041Z,51.74
2018-11-10T18:50:10.147Z,51.70
2018-11-10T18:52:36.167Z,51.77
2018-11-10T18:55:02.182Z,51.85
2018-11-10T18:57:28.285Z,51.59
2018-11-10T18:59:54.224Z,51.60
2018-11-10T19:02:20.213Z,51.55
2018-11-10T19:04:46.216Z,51.51
2018-11-10T19:07:12.213Z,51.49
2018-11-10T19:09:38.225Z,51.47
2018-11-10T19:12:04.249Z,51.42
2018-11-10T19:14:30.229Z,51.32
2018-11-10T19:16:58.904Z,51.18
2018-11-10T19:19:24.887Z,51.16
2018-11-10T19:21:50.881Z,51.14
2018-11-10T19:24:16.962Z,51.06
2018-11-10T19:26:43.025Z,51.09
2018-11-10T19:29:09.017Z,51.30
2018-11-10T19:31:35.065Z,51.37
2018-11-10T19:34:01.904Z,51.40
2018-11-10T19:36:28.547Z,51.42
2018-11-10T19:38:54.531Z,51.46
2018-11-10T19:41:20.565Z,51.53
2018-11-10T19:43:46.569Z,51.63
2018-11-10T19:46:12.562Z,51.79
2018-11-10T19:48:38.549Z,51.86
2018-11-10T19:51:04.809Z,51.98
2018-11-10T19:53:30.571Z,51.88
2018-11-10T19:56:02.841Z,51.70
2018-11-10T19:58:28.851Z,51.57
2018-11-10T20:00:54.924Z,51.26
2018-11-10T20:03:20.879Z,51.10
2018-11-10T20:05:46.897Z,51.03
2018-11-10T20:08:12.932Z,51.15
2018-11-10T20:10:38.920Z,51.17
2018-11-10T20:13:04.926Z,51.25
2018-11-10T20:15:30.910Z,51.22
2018-11-10T20:17:56.921Z,51.37
2018-11-10T20:20:22.930Z,51.41
2018-11-10T20:22:48.919Z,51.45
2018-11-10T20:25:14.932Z,51.35
2018-11-10T20:27:40.941Z,51.06
2018-11-10T20:30:06.946Z,50.92
2018-11-10T20:32:33.132Z,50.84
2018-11-10T20:34:59.117Z,50.85
2018-11-10T20:37:25.269Z,50.89
2018-11-10T20:39:51.256Z,50.92
2018-11-10T20:42:17.273Z,51.00
2018-11-10T20:44:43.290Z,50.99
2018-11-10T20:47:09.274Z,51.04
2018-11-10T20:49:35.292Z,51.05
2018-11-10T20:52:01.308Z,51.08
2018-11-10T20:54:27.318Z,51.06
2018-11-10T20:56:53.322Z,51.16
2018-11-10T20:59:19.334Z,51.18
2018-11-10T21:01:45.320Z,51.11
2018-11-10T21:04:11.350Z,51.12
2018-11-10T21:06:37.361Z,51.29
2018-11-10T21:09:03.369Z,51.25
2018-11-10T21:11:29.378Z,51.30
2018-11-10T21:13:55.432Z,51.25
2018-11-10T21:16:21.454Z,51.38
2018-11-10T21:18:47.477Z,51.34
2018-11-10T21:21:13.465Z,51.36
2018-11-10T21:23:39.530Z,51.34
2018-11-10T21:26:05.517Z,51.37
2018-11-10T21:28:31.531Z,51.37
2018-11-10T21:30:57.508Z,51.35
2018-11-10T21:33:23.590Z,51.35
2018-11-10T21:35:49.526Z,51.43
2018-11-10T21:38:15.544Z,51.47
2018-11-10T21:40:41.557Z,51.26
2018-11-10T21:43:07.581Z,50.95
2018-11-10T21:45:33.591Z,50.66
2018-11-10T21:47:59.609Z,50.67
2018-11-10T21:50:26.677Z,50.55
2018-11-10T21:52:52.687Z,50.55
2018-11-10T21:55:18.697Z,50.50
2018-11-10T21:57:44.709Z,50.48
2018-11-10T22:00:10.690Z,50.29
2018-11-10T22:02:46.143Z,50.35
2018-11-10T22:05:12.272Z,50.27
2018-11-10T22:07:38.248Z,50.26
2018-11-10T22:10:04.496Z,50.48
2018-11-10T22:12:30.482Z,50.51
2018-11-10T22:14:56.596Z,50.44
2018-11-10T22:17:22.617Z,50.36
2018-11-10T22:19:48.622Z,50.23
2018-11-10T22:22:14.665Z,49.88
2018-11-10T22:24:40.651Z,49.81
2018-11-10T22:27:06.941Z,49.95
2018-11-10T22:29:32.960Z,49.90
2018-11-10T22:31:58.963Z,50.00
2018-11-10T22:34:24.985Z,50.04
2018-11-10T22:36:50.981Z,49.92
2018-11-10T22:39:16.985Z,49.86
2018-11-10T22:41:42.973Z,49.87
2018-11-10T22:44:08.988Z,49.88
2018-11-10T22:46:34.994Z,49.87
2018-11-10T22:49:01.019Z,49.84
2018-11-10T22:51:27.030Z,49.79
2018-11-10T22:53:53.010Z,49.76
2018-11-10T22:56:18.992Z,49.72
2018-11-10T22:58:44.978Z,49.79
2018-11-10T23:01:11.023Z,49.68
2018-11-10T23:03:37.078Z,49.67
2018-11-10T23:06:03.239Z,49.78
2018-11-10T23:08:29.216Z,49.62
2018-11-10T23:10:55.200Z,49.64
2018-11-10T23:13:21.191Z,49.55
2018-11-10T23:15:47.174Z,49.56
2018-11-10T23:18:13.743Z,49.50
2018-11-10T23:20:39.732Z,49.53
2018-11-10T23:23:06.515Z,49.45
2018-11-10T23:25:32.484Z,49.47
2018-11-10T23:27:58.487Z,49.44
2018-11-10T23:30:24.469Z,49.58
2018-11-10T23:32:50.477Z,49.41
2018-11-10T23:35:16.482Z,49.44
2018-11-10T23:37:42.513Z,49.39
2018-11-10T23:40:08.504Z,49.36
2018-11-10T23:42:34.484Z,49.35
2018-11-10T23:45:00.497Z,49.45
2018-11-10T23:47:26.484Z,49.33
2018-11-10T23:49:52.464Z,49.34
2018-11-10T23:52:18.467Z,49.27
2018-11-10T23:54:44.473Z,49.25
2018-11-10T23:57:10.482Z,49.23
2018-11-10T23:59:36.486Z,49.25
